createdAt,value
2023-03-22T00:01:14.568Z,4.53
2023-03-22T00:03:42.678Z,3.53
2023-03-22T00:06:09.852Z,4.07
2023-03-22T00:08:36.930Z,3.23
2023-03-22T00:11:04.922Z,4.10
2023-03-22T00:13:35.024Z,4.63
2023-03-22T00:16:03.034Z,3.83
2023-03-22T00:18:30.566Z,3.37
2023-03-22T00:20:59.441Z,4.30
2023-03-22T00:23:27.803Z,4.25
2023-03-22T00:25:55.336Z,6.17
2023-03-22T00:28:22.662Z,8.53
2023-03-22T00:30:58.719Z,13.73
2023-03-22T00:33:27.960Z,16.03
2023-03-22T00:35:58.838Z,12.33
2023-03-22T00:38:41.203Z,11.47
2023-03-22T00:41:13.728Z,9.03
2023-03-22T00:43:41.204Z,7.07
2023-03-22T00:46:08.793Z,7.27
2023-03-22T00:48:36.205Z,9.43
2023-03-22T00:51:03.542Z,11.50
2023-03-22T00:53:33.179Z,14.37
2023-03-22T00:56:00.452Z,13.97
2023-03-22T00:58:32.221Z,8.90
2023-03-22T01:00:59.058Z,11.27
2023-03-22T01:03:27.264Z,8.23
2023-03-22T01:05:55.977Z,9.25
2023-03-22T01:08:24.546Z,8.17
2023-03-22T01:10:52.075Z,7.10
2023-03-22T01:13:19.035Z,7.40
2023-03-22T01:15:48.050Z,9.73
2023-03-22T01:20:43.861Z,9.43
2023-03-22T01:23:10.930Z,10.50
2023-03-22T01:25:37.825Z,10.80
2023-03-22T03:08:12.851Z,6.27
2023-03-22T03:10:42.356Z,8.67
2023-03-22T03:13:16.786Z,7.80
2023-03-22T03:15:48.871Z,7.43
2023-03-22T03:18:40.848Z,7.53
2023-03-22T03:21:07.659Z,12.07
2023-03-22T03:23:53.279Z,9.73
2023-03-22T03:26:44.329Z,6.03
2023-03-22T03:29:29.592Z,8.13
2023-03-22T06:18:09.362Z,5.33
2023-03-22T06:20:41.642Z,15.00
2023-03-22T06:23:15.068Z,6.60
2023-03-22T06:28:12.676Z,12.23
2023-03-22T06:30:47.366Z,19.70
2023-03-22T06:33:19.945Z,31.20
2023-03-22T06:35:53.036Z,44.37
2023-03-22T06:38:29.048Z,46.13
2023-03-22T06:40:56.307Z,50.17
2023-03-22T06:43:23.145Z,34.67
2023-03-22T06:45:57.470Z,30.77
2023-03-22T06:48:36.868Z,31.83
2023-03-22T06:51:07.069Z,10.50
2023-03-22T06:53:35.930Z,12.45
2023-03-22T06:56:04.282Z,13.57
2023-03-22T06:58:38.532Z,11.20
2023-03-22T07:01:05.756Z,7.63
2023-03-22T07:03:34.131Z,7.68
2023-03-22T07:06:08.784Z,8.87
2023-03-22T07:08:39.540Z,8.33
2023-03-22T07:11:08.104Z,5.97
2023-03-22T07:13:35.692Z,6.47
2023-03-22T07:16:10.216Z,5.77
2023-03-22T07:18:45.041Z,6.13
2023-03-22T07:21:12.265Z,6.23
2023-03-22T07:23:43.542Z,6.30
2023-03-22T07:26:14.563Z,6.43
2023-03-22T07:28:44.898Z,7.67
2023-03-22T07:31:14.361Z,7.13
2023-03-22T07:33:52.382Z,7.67
2023-03-22T07:36:24.173Z,7.63
2023-03-22T07:38:52.407Z,7.50
2023-03-22T07:41:40.435Z,11.30
2023-03-22T07:44:18.225Z,9.20
2023-03-22T08:58:20.429Z,13.60
2023-03-22T09:00:56.819Z,15.10
2023-03-22T09:03:47.281Z,13.73
2023-03-22T09:06:14.923Z,13.27
2023-03-22T09:08:52.404Z,14.13
2023-03-22T09:11:22.519Z,10.50
2023-03-22T09:13:51.242Z,12.13
2023-03-22T09:18:47.191Z,9.43
2023-03-22T09:21:22.040Z,11.27
2023-03-22T09:23:53.302Z,10.67
2023-03-22T09:26:27.257Z,7.20
2023-03-22T09:28:56.201Z,6.88
2023-03-22T09:31:26.002Z,9.07
2023-03-22T09:34:06.549Z,7.47
2023-03-22T09:36:35.310Z,5.80
2023-03-22T09:39:07.478Z,5.53
2023-03-22T09:41:41.300Z,4.73
2023-03-22T09:44:16.371Z,4.33
2023-03-22T10:03:44.258Z,6.27
2023-03-22T10:06:37.456Z,5.57
2023-03-22T10:09:19.700Z,6.40
2023-03-22T10:11:54.231Z,6.90
2023-03-22T10:14:30.832Z,8.30
2023-03-22T10:17:00.708Z,8.43
2023-03-22T10:19:40.403Z,7.64
2023-03-22T10:22:15.854Z,4.47
2023-03-22T10:24:47.054Z,3.90
2023-03-22T10:27:22.849Z,2.00
2023-03-22T10:29:55.985Z,2.33
2023-03-22T10:32:45.239Z,2.20
2023-03-22T11:12:29.558Z,3.80
2023-03-22T11:14:56.605Z,5.13
2023-03-22T11:17:26.121Z,3.47
2023-03-22T11:20:07.799Z,4.70
2023-03-22T11:22:49.652Z,6.50
2023-03-22T11:25:28.438Z,9.90
2023-03-22T11:28:17.080Z,15.45
2023-03-22T11:31:18.360Z,19.95
2023-03-22T11:34:15.826Z,20.50
2023-03-22T12:03:27.431Z,8.77
2023-03-22T12:05:55.246Z,7.47
2023-03-22T12:08:46.443Z,6.83
2023-03-22T12:11:41.253Z,6.37
2023-03-22T12:14:25.148Z,7.65
2023-03-22T12:17:00.182Z,8.03
2023-03-22T12:19:58.762Z,6.38
2023-03-22T12:22:33.206Z,7.35
2023-03-22T12:25:01.720Z,9.23
2023-03-22T12:27:37.646Z,6.68
2023-03-22T12:30:04.651Z,7.18
2023-03-22T12:32:36.980Z,6.82
2023-03-22T12:35:16.662Z,6.10
2023-03-22T12:37:48.461Z,6.07
2023-03-22T12:40:23.058Z,6.70
2023-03-22T12:43:00.143Z,4.88
2023-03-22T12:45:29.618Z,5.78
2023-03-22T12:48:18.254Z,4.03
2023-03-22T12:50:52.367Z,4.68
2023-03-22T12:53:21.359Z,4.63
2023-03-22T12:55:49.533Z,4.25
2023-03-22T12:58:22.451Z,5.55
2023-03-22T13:00:58.379Z,4.03
2023-03-22T13:03:29.370Z,4.95
2023-03-22T13:06:05.834Z,6.55
2023-03-22T13:09:04.610Z,5.28
2023-03-22T13:11:31.710Z,5.10
2023-03-22T13:13:58.506Z,7.03
2023-03-22T13:16:53.516Z,5.70
2023-03-22T13:19:36.338Z,4.40
2023-03-22T13:22:21.188Z,3.70
2023-03-22T13:25:17.328Z,3.67
2023-03-22T13:28:05.352Z,3.10
2023-03-22T13:30:49.265Z,1.85
2023-03-22T13:33:30.242Z,2.75
2023-03-22T13:36:05.937Z,5.07
2023-03-22T13:38:38.048Z,2.38
2023-03-22T13:41:07.953Z,4.90
2023-03-22T13:43:50.455Z,28.55
2023-03-22T13:46:20.879Z,7.28
2023-03-22T13:48:48.463Z,9.00
2023-03-22T13:51:22.144Z,7.82
2023-03-22T13:54:07.514Z,4.10
2023-03-22T13:56:52.515Z,5.13
2023-03-22T13:59:30.043Z,5.75
2023-03-22T14:02:15.760Z,4.82
2023-03-22T14:04:56.188Z,5.70
2023-03-22T14:07:27.215Z,5.70
2023-03-22T14:10:02.304Z,7.22
2023-03-22T14:12:45.577Z,7.25
2023-03-22T14:15:17.808Z,7.43
2023-03-22T14:17:56.407Z,7.13
2023-03-22T14:20:29.709Z,27.60
2023-03-22T14:53:47.432Z,7.85
2023-03-22T14:56:19.001Z,9.13
2023-03-22T14:58:48.562Z,8.75
2023-03-22T15:01:26.104Z,10.18
2023-03-22T15:03:58.095Z,11.05
2023-03-22T15:06:27.335Z,13.25
2023-03-22T15:11:22.144Z,12.43
2023-03-22T15:13:52.180Z,17.27
2023-03-22T15:16:22.366Z,36.40
2023-03-22T15:18:52.490Z,13.90
2023-03-22T15:21:19.728Z,16.85
2023-03-22T15:23:55.040Z,11.20
2023-03-22T15:26:28.123Z,10.80
2023-03-22T15:28:57.104Z,9.23
2023-03-22T15:31:33.541Z,9.10
2023-03-22T15:34:03.808Z,7.85
2023-03-22T15:36:33.404Z,9.13
2023-03-22T15:39:06.746Z,7.85
2023-03-22T15:41:44.047Z,9.90
2023-03-22T15:44:26.676Z,8.25
2023-03-22T15:47:14.328Z,10.18
2023-03-22T15:49:45.601Z,8.90
2023-03-22T15:52:12.505Z,10.32
2023-03-22T15:54:56.556Z,8.50
2023-03-22T15:57:37.097Z,8.60
2023-03-22T16:00:19.460Z,7.60
2023-03-22T16:02:52.584Z,7.70
2023-03-22T16:05:21.381Z,6.85
2023-03-22T16:07:48.365Z,7.55
2023-03-22T16:10:20.775Z,8.75
2023-03-22T16:12:48.994Z,10.25
2023-03-22T16:15:19.866Z,12.10
2023-03-22T16:17:47.151Z,10.30
2023-03-22T16:20:15.889Z,11.25
2023-03-22T16:22:45.143Z,13.70
2023-03-22T16:25:19.356Z,12.45
2023-03-22T16:27:46.378Z,12.20
2023-03-22T16:30:14.774Z,11.70
2023-03-22T16:32:43.446Z,10.10
2023-03-22T16:35:16.529Z,10.20
2023-03-22T16:37:44.130Z,12.18
2023-03-22T16:40:16.479Z,13.43
2023-03-22T16:42:43.717Z,11.25
2023-03-22T16:45:19.713Z,14.77
2023-03-22T16:47:47.458Z,14.10
2023-03-22T16:50:14.521Z,13.40
2023-03-22T16:52:41.613Z,13.13
2023-03-22T16:55:22.404Z,12.48
2023-03-22T16:57:50.078Z,14.07
2023-03-22T17:00:19.612Z,15.57
2023-03-22T17:02:49.184Z,14.95
2023-03-22T17:05:21.680Z,11.98
2023-03-22T17:07:50.217Z,15.48
2023-03-22T17:10:20.000Z,15.02
2023-03-22T17:12:49.786Z,16.73
2023-03-22T17:15:29.068Z,35.60
2023-03-22T17:20:23.606Z,27.98
2023-03-22T17:22:50.800Z,23.95
2023-03-22T17:25:21.681Z,30.25
2023-03-22T17:27:48.711Z,30.42
2023-03-22T17:30:16.034Z,29.33
2023-03-22T17:32:57.844Z,38.58
2023-03-22T17:35:30.648Z,38.25
2023-03-22T17:37:59.245Z,33.42
2023-03-22T17:40:33.112Z,41.65
2023-03-22T17:43:07.033Z,39.03
2023-03-22T17:46:00.998Z,29.98
2023-03-22T17:48:23.223Z,30.83
2023-03-22T17:50:50.679Z,39.78
2023-03-22T17:53:29.236Z,32.67
2023-03-22T17:56:43.863Z,27.80
2023-03-22T17:58:52.284Z,29.00
2023-03-22T18:01:21.612Z,27.75
2023-03-22T18:03:48.957Z,32.10
2023-03-22T18:06:16.430Z,30.27
2023-03-22T18:08:44.946Z,33.67
2023-03-22T18:11:15.284Z,33.08
2023-03-22T18:13:44.462Z,29.45
2023-03-22T18:16:11.901Z,30.42
2023-03-22T18:18:38.930Z,31.70
2023-03-22T18:21:15.740Z,38.27
2023-03-22T18:23:43.381Z,40.23
2023-03-22T18:26:27.340Z,33.17
2023-03-22T18:28:56.039Z,35.13
2023-03-22T18:31:23.293Z,37.87
2023-03-22T18:33:50.608Z,33.77
2023-03-22T18:36:18.020Z,36.27
2023-03-22T18:39:30.400Z,38.07
2023-03-22T18:41:45.987Z,34.67
2023-03-22T18:44:14.981Z,39.67
2023-03-22T18:46:43.730Z,40.58
2023-03-22T18:49:11.191Z,39.45
2023-03-22T18:54:11.066Z,41.63
2023-03-22T18:56:38.462Z,48.17
2023-03-22T18:59:06.350Z,47.53
2023-03-22T19:01:33.533Z,43.17
2023-03-22T19:04:00.634Z,37.87
2023-03-22T19:06:27.601Z,47.33
2023-03-22T19:08:54.915Z,43.03
2023-03-22T19:11:22.838Z,47.27
2023-03-22T19:16:33.308Z,49.37
2023-03-22T19:19:01.809Z,42.13
2023-03-22T19:21:32.349Z,41.58
2023-03-22T19:23:59.771Z,51.17
2023-03-22T19:26:27.964Z,53.17
2023-03-22T19:28:58.564Z,51.23
